Time;durP1;ratioP1;P1;durP2;ratioP2;P2;SDS_P1;SDS_P2;PMS_P1;PMS_P2;Temp;Humidity;BMP_temperature;BMP_pressure;BME280_temperature;BME280_humidity;BME280_pressure;Samples;Min_cycle;Max_cycle;Signal;HPM_P1;HPM_P2
2023/01/09 00:02:07;;;;;;;29.90;21.33;;;;;;;0.32;100.00;101151.28;5010343;28;20029;-74
2023/01/09 00:04:33;;;;;;;31.00;21.70;;;;;;;0.29;100.00;101141.72;5011777;28;20116;-75
2023/01/09 00:06:58;;;;;;;34.63;22.43;;;;;;;0.09;100.00;101150.13;5010096;28;20576;-76
2023/01/09 00:09:24;;;;;;;30.83;21.63;;;;;;;-0.08;100.00;101156.19;4998136;28;20489;-73
2023/01/09 00:11:50;;;;;;;29.90;21.23;;;;;;;-0.11;100.00;101155.03;4991307;28;20456;-75
2023/01/09 00:14:16;;;;;;;37.50;22.57;;;;;;;-0.10;100.00;101152.66;4991631;28;20025;-72
2023/01/09 00:16:42;;;;;;;30.60;20.93;;;;;;;-0.15;100.00;101145.38;5004678;28;20061;-73
2023/01/09 00:19:08;;;;;;;29.37;21.07;;;;;;;-0.23;100.00;101142.13;5010993;28;20460;-73
2023/01/09 00:21:34;;;;;;;34.83;21.10;;;;;;;-0.24;100.00;101146.28;5009719;28;20108;-78
2023/01/09 00:24:00;;;;;;;32.83;21.20;;;;;;;-0.33;100.00;101135.31;5006375;28;20034;-77
2023/01/09 00:26:25;;;;;;;33.07;19.83;;;;;;;-0.24;100.00;101158.09;5004871;28;20056;-77
2023/01/09 00:28:52;;;;;;;31.00;20.33;;;;;;;-0.41;100.00;101161.63;5009829;28;20022;-76
2023/01/09 00:31:19;;;;;;;34.33;20.80;;;;;;;-0.56;100.00;101144.25;5011383;28;20112;-74
2023/01/09 00:33:49;;;;;;;28.17;20.43;;;;;;;-0.69;100.00;101156.56;5011365;28;20029;-76
2023/01/09 00:36:14;;;;;;;31.87;19.93;;;;;;;-0.82;100.00;101140.19;5011721;28;20034;-73
2023/01/09 00:38:40;;;;;;;33.77;23.27;;;;;;;-0.77;100.00;101140.63;5011249;28;20040;-73
2023/01/09 00:41:10;;;;;;;28.63;20.67;;;;;;;-0.64;100.00;101146.84;5011577;28;20042;-73
2023/01/09 00:43:45;;;;;;;38.13;21.37;;;;;;;-0.55;100.00;101150.22;5010209;28;20062;-74
2023/01/09 00:46:12;;;;;;;33.27;22.20;;;;;;;-0.50;100.00;101149.91;5011447;28;20038;-73
2023/01/09 00:48:40;;;;;;;32.33;22.27;;;;;;;-0.47;100.00;101138.22;5011191;28;20556;-73
2023/01/09 00:51:07;;;;;;;29.43;21.00;;;;;;;-0.44;100.00;101143.59;5011005;28;20033;-73
2023/01/09 00:53:36;;;;;;;33.10;21.77;;;;;;;-0.68;100.00;101117.78;5010031;28;20060;-74
2023/01/09 00:56:05;;;;;;;32.78;21.05;;;;;;;-0.65;100.00;101133.25;5011359;28;20042;-74
2023/01/09 00:58:32;;;;;;;;;;;;;;;-0.61;100.00;101135.34;5011797;28;20026;-74
2023/01/09 01:00:57;;;;;;;32.47;22.07;;;;;;;-0.72;100.00;101119.13;5011482;28;20015;-73
2023/01/09 01:03:23;;;;;;;31.70;23.07;;;;;;;-0.72;100.00;101124.19;5011137;28;20026;-73
2023/01/09 01:08:32;;;;;;;33.80;23.20;;;;;;;-1.04;100.00;101088.25;5011130;28;20534;-73
2023/01/09 01:10:57;;;;;;;37.50;22.83;;;;;;;-0.96;100.00;101117.72;5009758;28;20042;-73
2023/01/09 01:13:23;;;;;;;36.60;23.80;;;;;;;-0.99;100.00;101112.38;5011123;28;20033;-74
2023/01/09 01:15:48;;;;;;;34.90;23.03;;;;;;;-1.03;100.00;101108.66;5010552;28;20456;-75
2023/01/09 01:18:14;;;;;;;31.67;22.20;;;;;;;-1.10;100.00;101102.88;5009795;28;20400;-73
2023/01/09 01:20:41;;;;;;;33.97;22.37;;;;;;;-1.10;100.00;101102.88;5009710;28;20416;-73
2023/01/09 01:23:07;;;;;;;36.67;24.00;;;;;;;-1.13;100.00;101106.03;5011065;28;20061;-74
2023/01/09 01:25:41;;;;;;;30.93;21.60;;;;;;;-1.22;100.00;101088.31;5009522;28;20514;-73
2023/01/09 01:28:07;;;;;;;31.83;21.73;;;;;;;-1.34;100.00;101102.38;5010966;28;20540;-73
2023/01/09 01:30:37;;;;;;;33.37;22.13;;;;;;;-1.70;100.00;101050.91;5009462;28;20030;-75
2023/01/09 01:33:03;;;;;;;;;;;;;;;-1.46;100.00;101102.09;5010035;28;20041;-73
2023/01/09 01:35:28;;;;;;;34.50;21.80;;;;;;;-1.51;100.00;101096.59;5011107;28;19979;-74
2023/01/09 01:37:54;;;;;;;32.70;21.97;;;;;;;-1.48;100.00;101096.88;5010817;28;20494;-75
2023/01/09 01:40:19;;;;;;;32.53;21.73;;;;;;;-1.45;100.00;101093.75;5009349;28;20088;-75
2023/01/09 01:42:47;;;;;;;32.43;21.63;;;;;;;-1.68;100.00;101062.06;5009478;28;20022;-75
2023/01/09 01:45:22;;;;;;;32.20;22.10;;;;;;;-1.56;100.00;101090.19;5027759;28;20041;-75
2023/01/09 01:47:57;;;;;;;32.63;22.20;;;;;;;-1.48;100.00;101093.47;5029114;28;20056;-75
2023/01/09 01:51:02;;;;;;;35.80;21.63;;;;;;;-1.33;100.00;101087.31;5030346;28;20060;-75
2023/01/09 01:53:27;;;;;;;32.67;21.40;;;;;;;-1.24;100.00;101084.75;5028931;28;20025;-76
2023/01/09 01:56:12;;;;;;;31.43;20.67;;;;;;;-1.11;100.00;101088.44;5028917;28;20052;-75
2023/01/09 01:58:47;;;;;;;29.33;19.87;;;;;;;-1.37;100.00;101048.88;5007888;28;20045;-75
2023/01/09 02:01:13;;;;;;;32.77;21.07;;;;;;;-1.16;100.00;101080.38;5010199;28;20074;-75
2023/01/09 02:03:40;;;;;;;32.17;21.03;;;;;;;-1.80;100.00;100967.25;5011566;28;20042;-75
2023/01/09 02:06:07;;;;;;;37.17;21.17;;;;;;;-1.18;100.00;101077.72;5011809;28;20041;-75
2023/01/09 02:08:33;;;;;;;31.50;21.20;;;;;;;-1.03;100.00;101084.97;5011782;28;20061;-76
2023/01/09 02:10:59;;;;;;;32.70;20.63;;;;;;;-1.06;100.00;101084.69;4994986;28;20045;-76
2023/01/09 02:13:26;;;;;;;33.40;20.10;;;;;;;-1.03;100.00;101088.41;5011832;28;20519;-75
2023/01/09 02:16:17;;;;;;;33.70;20.77;;;;;;;-1.11;100.00;101078.28;5011607;28;20099;-76
2023/01/09 02:18:45;;;;;;;30.60;20.37;;;;;;;-1.11;100.00;101074.09;5011593;28;20121;-76
2023/01/09 02:21:28;;;;;;;37.77;21.53;;;;;;;-0.96;100.00;101069.56;5011396;28;20038;-75
2023/01/09 02:24:27;;;;;;;29.80;20.13;;;;;;;-0.95;100.00;101048.56;5011249;28;20041;-76
2023/01/09 02:27:04;;;;;;;31.88;20.65;;;;;;;-0.78;100.00;101059.38;5011492;28;20558;-76
2023/01/09 02:30:07;;;;;;;32.13;20.90;;;;;;;-0.67;100.00;101063.78;5011282;28;20050;-76
2023/01/09 02:32:40;;;;;;;32.07;21.83;;;;;;;-0.69;100.00;101058.53;5011357;28;20112;-75
2023/01/09 02:35:21;;;;;;;32.60;23.17;;;;;;;-0.73;100.00;101042.94;5015958;28;20076;-76
2023/01/09 02:38:08;;;;;;;35.13;21.33;;;;;;;-0.63;100.00;101052.28;5032282;28;20053;-76
2023/01/09 02:40:51;;;;;;;31.93;22.03;;;;;;;-0.63;100.00;101049.75;5033537;28;20083;-76
2023/01/09 02:43:16;;;;;;;35.20;23.10;;;;;;;-0.51;100.00;101046.66;5031740;28;20021;-77
2023/01/09 02:45:42;;;;;;;33.10;23.77;;;;;;;-0.41;100.00;101039.88;5032173;28;20037;-75
2023/01/09 02:48:11;;;;;;;34.23;24.57;;;;;;;-0.51;100.00;101008.63;5031796;28;20202;-76
2023/01/09 02:51:20;;;;;;;28.58;19.23;;;;;;;-0.28;100.00;101044.41;5033300;28;20100;-75
2023/01/09 02:53:59;;;;;;;37.05;23.95;;;;;;;-0.22;100.00;101050.03;5010746;28;20065;-74
2023/01/09 02:56:41;;;;;;;37.20;23.60;;;;;;;-0.22;100.00;101043.31;5010701;28;20058;-75
2023/01/09 02:59:14;;;;;;;38.23;25.30;;;;;;;-0.40;100.00;101007.06;5010795;28;20504;-75
2023/01/09 03:02:04;;;;;;;35.17;24.17;;;;;;;-0.18;100.00;101039.41;5010709;28;20029;-75
2023/01/09 03:04:56;;;;;;;35.03;24.77;;;;;;;-0.05;100.00;101046.44;5010533;28;20257;-76
2023/01/09 03:07:26;;;;;;;32.53;24.00;;;;;;;-0.04;100.00;101035.53;5010465;28;20037;-76
2023/01/09 03:10:07;;;;;;;38.33;24.50;;;;;;;0.05;100.00;101041.44;5010738;28;20033;-76
2023/01/09 03:12:34;;;;;;;36.93;24.97;;;;;;;-0.21;100.00;100981.66;5010305;28;20041;-77
2023/01/09 03:15:01;;;;;;;35.20;24.20;;;;;;;0.06;100.00;101042.31;4993948;28;20048;-76
2023/01/09 03:17:35;;;;;;;39.30;25.03;;;;;;;-0.03;100.00;101005.19;5010626;28;20175;-76
2023/01/09 03:20:04;;;;;;;40.27;26.63;;;;;;;0.11;100.00;101029.28;5010436;28;20030;-76
2023/01/09 03:22:29;;;;;;;36.63;25.27;;;;;;;-0.08;100.00;100978.53;5010275;28;20504;-76
2023/01/09 03:24:55;;;;;;;39.03;25.20;;;;;;;-0.06;100.00;100976.16;5025608;28;20086;-76
2023/01/09 03:27:20;;;;;;;39.30;25.03;;;;;;;0.23;100.00;101026.91;5032422;28;20403;-74
2023/01/09 03:29:46;;;;;;;37.20;24.07;;;;;;;0.17;100.00;101013.69;5032598;28;20044;-75
2023/01/09 03:32:12;;;;;;;36.80;24.23;;;;;;;0.27;100.00;101028.06;5032909;28;20108;-74
2023/01/09 03:34:37;;;;;;;40.93;26.63;;;;;;;0.33;100.00;101023.53;5032662;28;20028;-75
2023/01/09 03:37:03;;;;;;;36.13;24.97;;;;;;;0.37;100.00;101027.22;5031289;28;20416;-74
2023/01/09 03:39:30;;;;;;;37.00;24.17;;;;;;;0.38;100.00;101022.28;5032324;28;20125;-74
2023/01/09 03:41:56;;;;;;;40.67;25.60;;;;;;;0.29;100.00;101011.34;5030938;28;20029;-74
2023/01/09 03:44:21;;;;;;;39.57;25.63;;;;;;;0.31;100.00;101023.41;5032155;28;20476;-76
2023/01/09 03:46:49;;;;;;;37.37;25.47;;;;;;;0.26;100.00;101018.66;5032133;28;20044;-76
2023/01/09 03:49:15;;;;;;;41.13;25.93;;;;;;;0.08;100.00;100987.50;5032253;28;20488;-73
2023/01/09 03:51:40;;;;;;;44.30;26.53;;;;;;;0.24;100.00;101010.03;5031850;28;20413;-75
2023/01/09 03:54:06;;;;;;;37.43;24.40;;;;;;;0.22;100.00;101017.50;5032381;28;20037;-75
2023/01/09 03:56:31;;;;;;;40.17;26.03;;;;;;;0.17;100.00;101015.34;5031867;28;20504;-74
2023/01/09 03:58:57;;;;;;;39.00;24.97;;;;;;;0.20;100.00;101016.50;5031637;28;20086;-73
2023/01/09 04:01:22;;;;;;;35.87;25.40;;;;;;;-0.02;100.00;100978.19;5030772;28;20052;-73
2023/01/09 04:03:48;;;;;;;37.50;25.30;;;;;;;0.18;100.00;101009.50;5026462;28;20049;-74
2023/01/09 04:06:13;;;;;;;42.10;26.53;;;;;;;0.26;100.00;101021.22;5028319;28;20117;-74
2023/01/09 04:08:39;;;;;;;40.13;25.57;;;;;;;0.24;100.00;101010.03;5030576;28;20034;-74
2023/01/09 04:11:04;;;;;;;39.07;26.37;;;;;;;0.26;100.00;101023.75;5032189;28;20099;-74
2023/01/09 04:13:30;;;;;;;38.67;25.07;;;;;;;0.35;100.00;101023.66;5030370;28;20179;-74
2023/01/09 04:15:55;;;;;;;39.47;25.93;;;;;;;0.34;100.00;101025.31;5030071;28;20537;-74
2023/01/09 04:18:21;;;;;;;42.63;25.57;;;;;;;0.31;100.00;101025.94;5031682;28;20026;-74
2023/01/09 04:20:47;;;;;;;36.50;24.67;;;;;;;0.34;100.00;101026.94;5030337;28;20030;-74
2023/01/09 04:23:13;;;;;;;36.20;23.77;;;;;;;0.37;100.00;101023.03;5031567;28;20033;-73
2023/01/09 04:25:38;;;;;;;39.97;23.70;;;;;;;0.43;100.00;101015.06;5031631;28;20109;-74
2023/01/09 04:28:04;;;;;;;35.07;23.03;;;;;;;0.34;100.00;101007.53;5031518;28;20107;-74
2023/01/09 04:30:29;;;;;;;37.70;23.97;;;;;;;0.43;100.00;101023.56;5015245;28;20048;-76
2023/01/09 04:32:55;;;;;;;34.60;22.37;;;;;;;0.40;100.00;101028.38;5027918;28;20030;-75
2023/01/09 04:35:20;;;;;;;37.10;22.57;;;;;;;0.40;100.00;101028.38;5031454;28;20057;-75
2023/01/09 04:37:46;;;;;;;36.80;21.57;;;;;;;0.21;100.00;101025.00;5031296;28;20052;-75
2023/01/09 04:40:12;;;;;;;34.93;22.67;;;;;;;0.12;100.00;101031.03;5031731;28;20110;-75
2023/01/09 04:42:39;;;;;;;35.00;21.73;;;;;;;-0.05;100.00;101000.75;5031342;28;20037;-74
2023/01/09 04:45:06;;;;;;;36.70;21.80;;;;;;;0.26;100.00;101041.53;5029851;28;20040;-74
2023/01/09 04:47:32;;;;;;;35.20;22.33;;;;;;;0.25;100.00;101034.66;5031269;28;20025;-75
2023/01/09 04:49:59;;;;;;;39.03;22.03;;;;;;;0.24;100.00;101035.44;5031329;28;20021;-75
2023/01/09 04:52:24;;;;;;;39.13;24.17;;;;;;;0.31;100.00;101043.72;5030587;28;20538;-75
2023/01/09 04:54:50;;;;;;;37.73;23.33;;;;;;;0.35;100.00;101047.44;5030646;28;20045;-75
2023/01/09 04:57:16;;;;;;;43.07;24.00;;;;;;;0.37;100.00;101040.81;5030893;28;20065;-75
2023/01/09 04:59:41;;;;;;;46.67;22.70;;;;;;;0.37;100.00;101042.47;5031106;28;20388;-75
2023/01/09 05:02:06;;;;;;;49.77;24.93;;;;;;;0.40;100.00;101050.34;5029443;28;20061;-78
2023/01/09 05:04:32;;;;;;;41.23;23.60;;;;;;;0.30;100.00;101043.59;5007772;28;20550;-74
2023/01/09 05:06:57;;;;;;;42.27;23.40;;;;;;;0.25;100.00;101049.91;5010922;28;20466;-74
2023/01/09 05:09:23;;;;;;;42.77;23.13;;;;;;;0.25;100.00;101053.34;5011667;28;20380;-74
2023/01/09 05:11:48;;;;;;;48.03;25.87;;;;;;;0.12;100.00;101043.75;5011138;28;20553;-73
2023/01/09 05:14:14;;;;;;;50.73;25.20;;;;;;;0.04;100.00;101049.81;5007706;28;20505;-77
2023/01/09 05:16:39;;;;;;;53.47;25.87;;;;;;;0.04;100.00;101051.44;5000483;28;20389;-74
2023/01/09 05:19:05;;;;;;;49.47;26.13;;;;;;;-0.36;100.00;100990.47;5002151;28;20095;-75
2023/01/09 05:21:31;;;;;;;49.43;25.37;;;;;;;-0.16;100.00;101055.66;4991422;28;20027;-75
2023/01/09 05:23:56;;;;;;;43.63;25.83;;;;;;;-0.22;100.00;101055.13;4989804;28;20038;-75
2023/01/09 05:26:22;;;;;;;43.70;25.40;;;;;;;-0.13;100.00;101049.97;4991296;28;20034;-75
2023/01/09 05:28:52;;;;;;;41.93;24.70;;;;;;;-0.05;100.00;101034.66;5000575;28;20069;-74
2023/01/09 05:31:19;;;;;;;49.77;26.13;;;;;;;0.14;100.00;101047.31;5009632;28;20030;-75
2023/01/09 05:33:45;;;;;;;39.77;24.27;;;;;;;0.17;100.00;101046.69;5010586;28;20694;-75
2023/01/09 05:36:10;;;;;;;45.03;22.43;;;;;;;0.23;100.00;101036.19;5011819;28;20044;-74
2023/01/09 05:38:36;;;;;;;36.33;22.33;;;;;;;0.31;100.00;101043.72;5015182;28;20370;-75
2023/01/09 05:41:02;;;;;;;40.57;22.50;;;;;;;0.35;100.00;101044.88;5014577;28;20029;-75
2023/01/09 05:43:27;;;;;;;33.73;20.73;;;;;;;0.27;100.00;101041.66;5014740;28;20025;-76
2023/01/09 05:45:53;;;;;;;34.83;20.53;;;;;;;0.24;100.00;101021.09;5014923;28;20095;-75
2023/01/09 05:48:18;;;;;;;36.50;19.50;;;;;;;0.28;100.00;101035.81;5004325;28;20038;-74
2023/01/09 05:50:44;;;;;;;40.73;22.23;;;;;;;0.24;100.00;101038.88;5014796;28;20030;-75
2023/01/09 05:53:09;;;;;;;39.37;22.70;;;;;;;0.22;100.00;101029.31;5014610;28;20061;-74
2023/01/09 05:55:35;;;;;;;45.93;22.00;;;;;;;0.25;100.00;101025.41;5014494;28;20030;-75
2023/01/09 05:58:01;;;;;;;37.50;22.50;;;;;;;0.23;100.00;101043.81;5014995;28;20054;-74
2023/01/09 06:00:26;;;;;;;39.30;21.70;;;;;;;0.18;100.00;101029.81;5014740;28;20025;-75
2023/01/09 06:02:52;;;;;;;39.27;21.73;;;;;;;0.14;100.00;101039.69;5014734;28;20041;-75
2023/01/09 06:05:17;;;;;;;34.73;20.23;;;;;;;0.02;100.00;101033.53;5014327;28;20028;-75
2023/01/09 06:07:43;;;;;;;38.90;20.00;;;;;;;-0.02;100.00;101037.44;5014341;28;20038;-75
2023/01/09 06:10:12;;;;;;;40.23;21.37;;;;;;;-0.01;100.00;101048.50;5014589;28;20029;-75
2023/01/09 06:12:37;;;;;;;27.15;15.55;;;;;;;0.03;100.00;101048.03;5013128;28;20040;-75
2023/01/09 06:15:03;;;;;;;47.10;27.97;;;;;;;-0.04;100.00;101027.91;5014232;28;20026;-74
2023/01/09 06:17:29;;;;;;;56.83;32.07;;;;;;;0.00;100.00;101042.69;4998735;28;20022;-75
2023/01/09 06:19:54;;;;;;;40.87;23.27;;;;;;;-0.08;100.00;101041.09;5003696;28;20021;-77
2023/01/09 06:22:20;;;;;;;35.00;20.83;;;;;;;-0.17;100.00;101047.13;5012700;28;20026;-74
2023/01/09 06:24:45;;;;;;;36.83;19.97;;;;;;;-0.14;100.00;101045.63;5013871;28;20033;-74
2023/01/09 06:27:11;;;;;;;34.07;19.53;;;;;;;-0.17;100.00;101044.59;5007660;28;20508;-72
2023/01/09 06:29:37;;;;;;;35.80;19.70;;;;;;;-0.14;100.00;101053.25;4993996;28;20112;-74
2023/01/09 06:32:03;;;;;;;36.07;19.97;;;;;;;-0.19;100.00;101050.28;4994347;28;20093;-75
2023/01/09 06:34:28;;;;;;;32.40;18.17;;;;;;;-0.15;100.00;101056.53;5006387;28;20030;-75
2023/01/09 06:36:54;;;;;;;33.93;18.90;;;;;;;-0.33;100.00;101022.03;5013780;28;20127;-74
2023/01/09 06:39:19;;;;;;;35.93;19.07;;;;;;;-0.10;100.00;101040.06;5013432;28;20516;-74
2023/01/09 06:41:45;;;;;;;33.83;18.40;;;;;;;0.07;100.00;101050.06;5013321;28;20030;-75
2023/01/09 06:44:11;;;;;;;37.23;17.97;;;;;;;-0.25;100.00;100989.75;5013611;28;20395;-74
2023/01/09 06:46:36;;;;;;;35.33;17.70;;;;;;;0.12;100.00;101053.00;5013038;28;20037;-76
2023/01/09 06:49:02;;;;;;;34.83;18.93;;;;;;;0.07;100.00;101044.97;5013733;28;20547;-73
2023/01/09 06:51:27;;;;;;;35.50;19.30;;;;;;;0.18;100.00;101057.75;5013618;28;20056;-73
2023/01/09 06:53:53;;;;;;;43.27;19.33;;;;;;;-0.09;100.00;101006.31;5012173;28;20550;-76
2023/01/09 06:56:19;;;;;;;36.60;19.80;;;;;;;0.13;100.00;101042.13;5013243;28;20515;-76
2023/01/09 06:58:44;;;;;;;40.00;19.90;;;;;;;0.21;100.00;101046.19;5013143;28;20037;-75
2023/01/09 07:01:10;;;;;;;45.03;20.43;;;;;;;0.27;100.00;101048.38;5012986;28;20415;-76
2023/01/09 07:03:35;;;;;;;43.67;20.33;;;;;;;0.24;100.00;101037.97;5013430;28;20034;-75
2023/01/09 07:06:01;;;;;;;44.83;20.47;;;;;;;0.29;100.00;101045.22;5013097;28;20034;-74
2023/01/09 07:08:26;;;;;;;41.80;20.33;;;;;;;0.13;100.00;101006.56;5013256;28;20036;-74
2023/01/09 07:10:51;;;;;;;37.20;19.23;;;;;;;0.40;100.00;101048.72;5013213;28;20104;-77
2023/01/09 07:13:17;;;;;;;42.97;20.67;;;;;;;0.45;100.00;101042.38;5011768;28;20029;-74
2023/01/09 07:15:42;;;;;;;41.83;20.07;;;;;;;0.51;100.00;101044.53;5013179;28;20117;-74
2023/01/09 07:18:08;;;;;;;48.07;21.53;;;;;;;0.56;100.00;101033.16;5012934;28;20403;-73
2023/01/09 07:20:33;;;;;;;53.27;21.70;;;;;;;0.57;100.00;101032.38;5011527;28;20112;-73
2023/01/09 07:22:58;;;;;;;47.33;22.67;;;;;;;0.62;100.00;101037.84;5012659;28;20038;-75
2023/01/09 07:25:24;;;;;;;62.93;27.33;;;;;;;0.72;100.00;101035.31;5011463;28;20413;-75
2023/01/09 07:27:49;;;;;;;45.67;24.67;;;;;;;0.47;100.00;100982.44;5011488;28;20477;-74
2023/01/09 07:30:16;;;;;;;43.73;22.47;;;;;;;0.74;100.00;101032.94;5012783;28;20617;-74
2023/01/09 07:32:41;;;;;;;52.17;25.07;;;;;;;0.76;100.00;101031.41;5012875;28;20034;-74
2023/01/09 07:35:08;;;;;;;47.23;24.93;;;;;;;0.75;100.00;101035.59;5012885;28;20030;-74
2023/01/09 07:37:34;;;;;;;51.43;23.13;;;;;;;0.78;100.00;101032.44;5012697;28;20061;-73
2023/01/09 07:40:02;;;;;;;50.30;24.03;;;;;;;0.81;100.00;101030.16;5012586;28;20052;-73
2023/01/09 07:42:27;;;;;;;44.93;24.00;;;;;;;0.86;100.00;101025.44;5012597;28;20025;-74
2023/01/09 07:44:53;;;;;;;52.77;24.47;;;;;;;0.89;100.00;101018.09;5022081;28;20506;-74
2023/01/09 07:47:18;;;;;;;45.43;23.53;;;;;;;0.92;100.00;101024.34;5032202;28;20025;-74
2023/01/09 07:49:44;;;;;;;45.47;23.70;;;;;;;1.01;100.00;101020.78;5032162;28;20026;-75
2023/01/09 07:52:09;;;;;;;49.27;24.33;;;;;;;1.03;100.00;101016.72;5031835;28;20148;-74
2023/01/09 07:54:34;;;;;;;54.63;25.40;;;;;;;1.09;100.00;101023.19;5030807;28;20553;-75
2023/01/09 07:57:01;;;;;;;49.27;23.30;;;;;;;1.15;100.00;101021.91;5031705;28;20103;-75
2023/01/09 07:59:28;;;;;;;58.17;25.03;;;;;;;1.13;100.00;101019.25;5031329;28;20041;-75
2023/01/09 08:01:54;;;;;;;52.57;24.00;;;;;;;1.16;100.00;101034.78;5031551;28;20413;-76
2023/01/09 08:04:19;;;;;;;47.57;24.50;;;;;;;1.12;100.00;101010.75;5031642;28;20079;-74
2023/01/09 08:06:45;;;;;;;46.67;25.27;;;;;;;1.17;100.00;101007.69;5031516;28;20476;-76
2023/01/09 08:09:12;;;;;;;51.90;25.47;;;;;;;1.30;100.00;101015.59;5031746;28;20507;-75
2023/01/09 08:11:38;;;;;;;51.83;24.40;;;;;;;1.21;100.00;101010.63;5031407;28;20083;-74
2023/01/09 08:14:03;;;;;;;49.93;26.27;;;;;;;1.36;100.00;101023.72;5031906;28;20593;-74
2023/01/09 08:16:28;;;;;;;50.60;26.97;;;;;;;1.36;100.00;101012.63;5031742;28;20033;-75
2023/01/09 08:18:54;;;;;;;52.93;25.43;;;;;;;1.41;100.00;101012.25;5032168;28;20037;-75
2023/01/09 08:21:19;;;;;;;48.93;23.63;;;;;;;1.49;100.00;101014.56;5030103;28;20036;-75
2023/01/09 08:23:45;;;;;;;42.47;21.23;;;;;;;1.52;100.00;101009.72;5031366;28;20030;-75
2023/01/09 08:26:11;;;;;;;39.70;21.03;;;;;;;1.40;100.00;101001.97;5031565;28;20033;-74
2023/01/09 08:28:37;;;;;;;42.53;22.87;;;;;;;1.40;100.00;101004.50;5031459;28;20112;-75
2023/01/09 08:31:02;;;;;;;43.93;21.63;;;;;;;1.41;100.00;100998.66;5029924;28;20033;-75
2023/01/09 08:33:28;;;;;;;37.27;19.37;;;;;;;1.33;100.00;100989.50;5031610;28;20021;-73
2023/01/09 08:35:54;;;;;;;39.37;20.87;;;;;;;1.35;100.00;101001.59;5030049;28;20120;-75
2023/01/09 08:38:21;;;;;;;36.27;19.20;;;;;;;1.35;100.00;100991.41;5031358;28;20124;-73
2023/01/09 08:40:47;;;;;;;33.20;17.63;;;;;;;1.33;100.00;100989.50;5031279;28;20044;-74
2023/01/09 08:48:42;;;;;;;32.60;17.43;;;;;;;1.52;100.00;100989.34;5030717;28;20044;-75
2023/01/09 08:51:08;;;;;;;36.27;19.30;;;;;;;1.57;100.00;100982.97;5029700;28;20025;-74
2023/01/09 08:53:34;;;;;;;30.07;16.60;;;;;;;1.61;100.00;100990.13;5029662;28;20116;-75
2023/01/09 08:55:59;;;;;;;31.17;17.37;;;;;;;1.66;100.00;100978.66;5030881;28;20037;-75
2023/01/09 08:58:26;;;;;;;33.00;17.53;;;;;;;1.66;100.00;100962.47;5029725;28;20046;-75
2023/01/09 09:00:51;;;;;;;26.67;16.43;;;;;;;1.81;100.00;100983.16;5031298;28;20025;-74
2023/01/09 09:03:17;;;;;;;28.53;15.97;;;;;;;1.61;100.00;100937.53;5030853;28;20434;-76
2023/01/09 09:05:42;;;;;;;29.57;17.40;;;;;;;1.78;100.00;100959.28;5029391;28;20033;-75
2023/01/09 09:08:08;;;;;;;32.87;19.03;;;;;;;1.82;100.00;100962.03;5030907;28;20032;-75
2023/01/09 09:10:33;;;;;;;31.30;17.77;;;;;;;1.86;100.00;100956.44;5029364;28;20045;-74
2023/01/09 09:12:59;;;;;;;32.57;19.03;;;;;;;1.93;100.00;100948.50;5029187;28;20498;-75
2023/01/09 09:15:25;;;;;;;36.17;18.63;;;;;;;1.97;100.00;100939.47;5030785;28;20451;-75
2023/01/09 09:17:59;;;;;;;29.53;18.40;;;;;;;2.06;100.00;100945.28;5030622;28;20045;-75
2023/01/09 09:20:28;;;;;;;36.00;18.53;;;;;;;1.85;100.00;100891.03;5024010;28;20157;-73
2023/01/09 09:22:53;;;;;;;30.83;17.70;;;;;;;2.07;100.00;100935.22;5027976;28;20041;-74
2023/01/09 09:25:19;;;;;;;31.30;18.63;;;;;;;2.09;100.00;100925.16;5027582;28;20893;-73
2023/01/09 09:27:44;;;;;;;37.90;20.67;;;;;;;2.09;100.00;100926.06;5011212;28;20490;-75
2023/01/09 09:30:12;;;;;;;38.80;19.60;;;;;;;2.09;100.00;100922.59;5011490;28;20033;-76
2023/01/09 09:32:39;;;;;;;38.50;19.73;;;;;;;1.98;100.00;100911.59;5008864;28;20093;-73
2023/01/09 09:35:04;;;;;;;48.70;23.20;;;;;;;1.94;100.00;100915.56;4996956;28;20046;-73
2023/01/09 09:37:30;;;;;;;42.67;19.83;;;;;;;2.05;100.00;100908.72;4998729;28;20575;-72
2023/01/09 09:39:57;;;;;;;44.33;21.17;;;;;;;1.84;100.00;100867.19;4997623;28;20069;-72
2023/01/09 09:46:00;;;;;;;47.40;22.37;;;;;;;2.00;100.00;100863.31;4998681;28;20115;-71
2023/01/09 09:48:25;;;;;;;53.10;21.43;;;;;;;2.18;100.00;100899.50;4998630;28;20107;-72
2023/01/09 09:51:11;;;;;;;50.70;22.47;;;;;;;2.26;100.00;100893.34;4996899;28;20517;-71
2023/01/09 09:53:58;;;;;;;44.77;20.47;;;;;;;2.24;100.00;100893.25;4997994;28;20531;-78
2023/01/09 09:56:26;;;;;;;48.93;20.97;;;;;;;2.20;100.00;100887.78;4998363;28;20081;-73
2023/01/09 09:59:03;;;;;;;57.33;21.53;;;;;;;2.29;100.00;100893.56;4998914;28;20038;-79
2023/01/09 10:01:41;;;;;;;55.17;22.13;;;;;;;2.38;100.00;100885.75;4997908;28;20897;-71
2023/01/09 10:04:14;;;;;;;52.23;21.30;;;;;;;2.45;100.00;100885.44;4999232;28;20029;-77
2023/01/09 10:06:44;;;;;;;52.72;21.88;;;;;;;2.48;100.00;100882.25;4999694;28;20041;-75
2023/01/09 10:09:32;;;;;;;56.97;21.40;;;;;;;2.61;100.00;100884.94;4999451;28;20068;-76
2023/01/09 10:12:11;;;;;;;55.35;21.00;;;;;;;2.61;100.00;100877.31;5000156;28;20385;-72
2023/01/09 10:14:38;;;;;;;55.85;20.70;;;;;;;2.24;100.00;100798.97;5000079;28;20033;-73
2023/01/09 10:17:22;;;;;;;57.95;23.67;;;;;;;2.72;100.00;100863.69;4999122;28;20030;-73
2023/01/09 10:19:56;;;;;;;64.72;23.55;;;;;;;2.77;100.00;100858.94;5000792;28;20056;-75
2023/01/09 10:22:40;;;;;;;67.22;24.27;;;;;;;2.59;100.00;100807.47;5003220;28;20119;-74
2023/01/09 10:25:39;;;;;;;65.80;22.48;;;;;;;2.92;100.00;100842.22;5004630;28;20168;-73
2023/01/09 10:28:13;;;;;;;63.22;23.13;;;;;;;2.83;100.00;100815.16;5003237;28;20030;-73
2023/01/09 10:30:49;;;;;;;62.15;20.88;;;;;;;3.12;100.00;100839.38;5004005;28;20018;-73
2023/01/09 10:33:41;;;;;;;61.22;23.02;;;;;;;3.11;100.00;100840.16;5004085;28;20113;-75
2023/01/09 10:36:22;;;;;;;66.18;22.98;;;;;;;2.87;100.00;100791.69;5003173;28;20052;-74
2023/01/09 10:38:50;;;;;;;66.05;22.70;;;;;;;3.09;100.00;100822.19;5004593;28;20034;-72
2023/01/09 10:41:24;;;;;;;57.53;21.13;;;;;;;3.08;100.00;100815.31;5003414;28;20124;-74
2023/01/09 10:44:25;;;;;;;57.65;23.85;;;;;;;3.11;100.00;100814.63;5002391;28;20018;-74
2023/01/09 10:46:56;;;;;;;56.20;23.02;;;;;;;3.06;100.00;100807.50;4979261;28;20034;-73
2023/01/09 10:49:23;;;;;;;60.55;23.08;;;;;;;3.09;100.00;100811.97;4981797;28;20142;-75
2023/01/09 10:52:10;;;;;;;64.75;25.42;;;;;;;3.26;100.00;100835.25;4988420;28;20049;-74
2023/01/09 10:54:43;;;;;;;63.35;25.13;;;;;;;3.08;100.00;100793.22;4991321;28;20046;-74
2023/01/09 10:57:39;;;;;;;68.35;27.40;;;;;;;3.36;100.00;100832.59;4991004;28;20076;-73
2023/01/09 11:00:05;;;;;;;72.90;30.40;;;;;;;3.37;100.00;100813.97;4988752;28;20039;-74
2023/01/09 11:02:34;;;;;;;65.18;29.90;;;;;;;3.35;100.00;100810.41;4980067;28;20034;-74
2023/01/09 11:04:59;;;;;;;68.18;30.35;;;;;;;3.40;100.00;100815.06;4987956;28;20041;-75
2023/01/09 11:07:38;;;;;;;66.10;32.47;;;;;;;3.35;100.00;100810.41;4991089;28;20030;-75
2023/01/09 11:10:06;;;;;;;66.70;29.10;;;;;;;3.35;100.00;100805.28;4974658;28;20073;-75
2023/01/09 11:12:34;;;;;;;66.97;28.15;;;;;;;3.33;100.00;100807.75;4991123;28;20034;-75
2023/01/09 11:15:18;;;;;;;62.78;28.27;;;;;;;3.28;100.00;100801.44;4974836;28;20073;-74
2023/01/09 11:17:49;;;;;;;68.43;29.33;;;;;;;3.34;100.00;100789.09;4987908;28;20046;-74
2023/01/09 11:20:22;;;;;;;93.10;46.92;;;;;;;3.47;100.00;100788.28;4988718;28;20128;-73
2023/01/09 11:22:50;;;;;;;85.05;40.83;;;;;;;3.55;100.00;100781.16;4988717;28;20046;-76
2023/01/09 11:25:21;;;;;;;67.45;26.58;;;;;;;3.26;100.00;100731.53;4996918;28;20481;-75
2023/01/09 11:28:01;;;;;;;67.38;30.08;;;;;;;3.56;100.00;100778.75;5002846;28;20507;-75